Time;durP1;ratioP1;P1;durP2;ratioP2;P2;SDS_P1;SDS_P2;PMS_P1;PMS_P2;Temp;Humidity;BMP_temperature;BMP_pressure;BME280_temperature;BME280_humidity;BME280_pressure;Samples;Min_cycle;Max_cycle;Signal;HPM_P1;HPM_P2
2023/12/30 00:02:18;;;;;;;2.70;0.80;;;17.90;75.20;;;;;;6106481;22;45144;-52
2023/12/30 00:05:00;;;;;;;1.25;0.50;;;17.90;74.90;;;;;;6152041;22;45181;-52
2023/12/30 00:11:24;;;;;;;2.22;0.60;;;17.90;74.20;;;;;;6067179;22;45143;-52
2023/12/30 00:13:51;;;;;;;2.55;0.70;;;17.90;74.20;;;;;;6085680;22;46259;-52
2023/12/30 00:16:42;;;;;;;2.65;0.82;;;17.90;74.20;;;;;;6086916;22;45279;-52
2023/12/30 00:19:09;;;;;;;2.63;0.77;;;17.80;74.00;;;;;;6065705;22;45273;-52
2023/12/30 00:22:04;;;;;;;3.42;0.73;;;17.90;74.20;;;;;;6113300;22;45281;-52
2023/12/30 00:24:31;;;;;;;1.90;0.77;;;17.80;74.30;;;;;;6084774;22;46942;-52
2023/12/30 00:27:30;;;;;;;3.17;0.85;;;17.80;74.20;;;;;;6081752;22;45057;-52
2023/12/30 00:29:57;;;;;;;4.85;0.90;;;17.80;73.80;;;;;;6069748;22;45415;-52
2023/12/30 00:32:42;;;;;;;2.72;0.73;;;17.90;73.90;;;;;;6081955;22;45321;-52
2023/12/30 00:35:37;;;;;;;1.88;0.68;;;17.90;74.40;;;;;;6086587;22;45267;-52
2023/12/30 00:38:04;;;;;;;3.50;0.90;;;17.90;73.90;;;;;;6100652;22;45136;-52
2023/12/30 00:40:31;;;;;;;4.03;0.90;;;17.90;74.30;;;;;;6069448;22;44829;-52
2023/12/30 00:42:58;;;;;;;3.47;0.77;;;17.90;74.60;;;;;;6080905;22;44995;-52
2023/12/30 00:45:48;;;;;;;4.35;0.90;;;17.90;74.50;;;;;;6067800;22;46044;-52
2023/12/30 00:49:00;;;;;;;4.03;1.00;;;17.90;74.30;;;;;;6071981;22;45317;-53
2023/12/30 00:51:44;;;;;;;6.38;0.85;;;17.80;74.10;;;;;;6058684;22;45262;-53
2023/12/30 00:54:21;;;;;;;4.45;0.95;;;17.90;74.60;;;;;;6052247;22;45244;-53
2023/12/30 00:57:10;;;;;;;4.60;1.00;;;17.80;74.40;;;;;;6046587;22;45515;-53
2023/12/30 00:59:59;;;;;;;3.03;0.90;;;17.80;74.40;;;;;;6072450;22;45257;-52
2023/12/30 01:02:39;;;;;;;3.22;0.80;;;17.80;74.50;;;;;;6048903;22;45363;-52
2023/12/30 01:13:01;;;;;;;4.35;1.20;;;17.80;74.80;;;;;;6033347;22;45258;-52
2023/12/30 01:15:28;;;;;;;2.55;0.93;;;17.80;74.90;;;;;;6045247;22;45099;-52
2023/12/30 01:18:32;;;;;;;5.25;1.10;;;17.80;74.70;;;;;;6066315;22;45466;-52
2023/12/30 01:21:21;;;;;;;3.58;0.85;;;17.80;74.30;;;;;;6121253;22;45838;-52
2023/12/30 01:24:11;;;;;;;6.00;1.13;;;17.90;74.60;;;;;;6049510;22;45441;-52
2023/12/30 01:26:57;;;;;;;4.47;1.05;;;17.90;74.30;;;;;;6048391;22;45323;-52
2023/12/30 01:29:38;;;;;;;3.17;0.90;;;17.90;74.30;;;;;;6050680;22;45360;-53
2023/12/30 01:32:06;;;;;;;3.40;1.13;;;17.90;74.60;;;;;;6029194;22;46066;-53
2023/12/30 01:34:58;;;;;;;2.30;0.68;;;17.90;74.30;;;;;;6053892;22;45090;-52
2023/12/30 01:37:30;;;;;;;2.58;0.85;;;17.90;74.40;;;;;;6065262;22;45286;-52
2023/12/30 01:40:09;;;;;;;2.67;0.80;;;17.90;74.60;;;;;;6038901;22;45312;-53
2023/12/30 01:43:05;;;;;;;3.20;1.08;;;17.90;74.10;;;;;;6059847;22;45355;-52
2023/12/30 01:45:51;;;;;;;2.03;0.80;;;17.90;73.90;;;;;;6051926;22;45240;-53
2023/12/30 01:48:48;;;;;;;5.22;1.30;;;17.90;74.10;;;;;;6062375;22;45346;-52
2023/12/30 01:51:30;;;;;;;4.80;0.77;;;17.80;74.10;;;;;;6065034;22;45385;-52
2023/12/30 01:54:07;;;;;;;3.95;1.10;;;17.80;73.90;;;;;;6060264;22;45901;-52
2023/12/30 01:56:55;;;;;;;3.28;1.00;;;17.80;74.00;;;;;;6059803;22;45031;-52
2023/12/30 01:59:23;;;;;;;3.25;0.70;;;17.80;73.90;;;;;;6057553;22;45240;-53
2023/12/30 02:01:52;;;;;;;4.75;1.00;;;17.80;73.90;;;;;;6051412;22;45232;-52
2023/12/30 02:04:38;;;;;;;3.45;0.95;;;17.80;74.00;;;;;;6067525;22;45764;-52
2023/12/30 02:07:18;;;;;;;4.30;0.93;;;17.80;74.10;;;;;;6053569;22;45095;-52
2023/12/30 02:10:03;;;;;;;3.53;0.80;;;17.80;73.60;;;;;;6073618;22;45183;-52
2023/12/30 02:12:46;;;;;;;5.30;1.08;;;17.80;73.50;;;;;;6055607;22;45104;-52
2023/12/30 02:15:26;;;;;;;3.47;1.00;;;17.80;73.00;;;;;;6071747;22;45803;-53
2023/12/30 02:18:07;;;;;;;3.05;0.75;;;17.90;74.60;;;;;;6041108;22;45484;-52
2023/12/30 02:20:43;;;;;;;3.33;0.90;;;17.90;73.30;;;;;;6064773;22;45320;-52
2023/12/30 02:23:11;;;;;;;5.82;1.10;;;17.90;73.30;;;;;;6056185;22;45135;-53
2023/12/30 02:26:08;;;;;;;4.10;1.15;;;17.90;73.60;;;;;;6061713;22;45930;-53
2023/12/30 02:28:56;;;;;;;3.45;0.82;;;17.90;73.50;;;;;;6046703;22;45417;-53
2023/12/30 02:35:50;;;;;;;2.90;0.98;;;17.90;73.60;;;;;;5981085;22;45344;-52
2023/12/30 02:38:20;;;;;;;3.63;1.15;;;17.90;73.60;;;;;;6043035;22;45588;-52
2023/12/30 02:40:49;;;;;;;2.65;0.80;;;17.90;73.50;;;;;;6052050;22;45224;-53
2023/12/30 02:46:43;;;;;;;2.85;0.90;;;17.80;73.20;;;;;;6014628;22;45124;-53
2023/12/30 02:49:49;;;;;;;2.75;1.00;;;17.80;73.60;;;;;;6052833;22;46626;-52
2023/12/30 02:52:17;;;;;;;3.60;0.85;;;17.80;73.50;;;;;;6034147;22;45232;-53
2023/12/30 02:58:20;;;;;;;3.15;0.90;;;17.80;73.70;;;;;;5989990;22;45352;-52
2023/12/30 03:01:19;;;;;;;5.10;1.17;;;17.80;73.30;;;;;;6046612;22;45585;-52
2023/12/30 03:03:46;;;;;;;2.35;0.73;;;17.80;73.20;;;;;;6056065;22;45268;-52
2023/12/30 03:06:14;;;;;;;3.05;0.85;;;17.80;73.40;;;;;;6055054;22;45139;-52
2023/12/30 03:11:23;;;;;;;2.67;0.68;;;17.80;72.80;;;;;;6028904;22;45821;-53
2023/12/30 03:13:51;;;;;;;1.73;0.90;;;17.80;72.80;;;;;;6056779;22;45403;-52
2023/12/30 03:16:22;;;;;;;4.47;1.20;;;17.90;72.90;;;;;;6058624;22;45289;-52
2023/12/30 03:19:00;;;;;;;3.42;0.93;;;17.90;73.20;;;;;;6038759;22;45186;-52
2023/12/30 03:21:44;;;;;;;5.32;0.85;;;17.90;73.10;;;;;;6046943;22;45708;-52
2023/12/30 03:24:10;;;;;;;4.40;1.00;;;17.90;72.80;;;;;;6035575;22;45696;-53
2023/12/30 03:26:37;;;;;;;2.60;1.10;;;17.90;73.30;;;;;;6038590;22;45309;-53
2023/12/30 03:29:05;;;;;;;2.63;1.02;;;17.90;73.20;;;;;;6039509;22;45338;-52
2023/12/30 03:31:33;;;;;;;3.08;0.98;;;17.90;72.90;;;;;;6058639;22;46223;-53
2023/12/30 03:37:57;;;;;;;3.78;0.75;;;17.90;72.50;;;;;;5990311;22;45486;-52
2023/12/30 03:40:24;;;;;;;3.03;0.70;;;17.80;72.80;;;;;;6054538;22;45214;-52
2023/12/30 03:43:04;;;;;;;3.92;0.95;;;17.80;72.60;;;;;;6080489;22;45238;-52
2023/12/30 03:45:54;;;;;;;3.22;0.77;;;17.80;72.90;;;;;;6052902;22;45260;-52
2023/12/30 03:48:21;;;;;;;2.47;0.80;;;17.80;72.50;;;;;;6053558;22;45259;-52
2023/12/30 03:54:40;;;;;;;4.18;0.93;;;17.80;72.70;;;;;;6016334;22;45103;-52
2023/12/30 03:57:35;;;;;;;4.30;1.10;;;17.80;72.30;;;;;;6044771;22;45127;-52
2023/12/30 04:00:07;;;;;;;4.75;0.80;;;17.80;72.40;;;;;;6070577;22;45040;-52
2023/12/30 04:02:47;;;;;;;3.58;1.13;;;17.80;72.40;;;;;;6056226;22;45169;-52
2023/12/30 04:05:14;;;;;;;2.45;0.80;;;17.80;72.10;;;;;;6046088;22;45846;-52
2023/12/30 04:07:40;;;;;;;3.58;1.00;;;17.90;72.80;;;;;;6062414;22;45685;-53
2023/12/30 04:10:31;;;;;;;2.45;0.82;;;17.90;72.20;;;;;;6055798;22;45230;-52
2023/12/30 04:13:13;;;;;;;3.53;1.00;;;17.80;72.30;;;;;;6062476;22;45278;-52
2023/12/30 04:16:04;;;;;;;3.58;1.20;;;17.90;72.40;;;;;;6052727;22;45512;-52
2023/12/30 04:19:01;;;;;;;3.67;1.10;;;17.90;72.10;;;;;;6044898;22;45352;-52
2023/12/30 04:21:33;;;;;;;3.75;0.93;;;17.80;72.00;;;;;;6050819;22;45269;-52
2023/12/30 04:24:13;;;;;;;4.20;0.90;;;17.80;72.20;;;;;;6045295;22;45460;-52
2023/12/30 04:26:40;;;;;;;1.70;0.73;;;17.80;71.90;;;;;;6068877;22;45430;-52
2023/12/30 04:29:26;;;;;;;2.67;0.95;;;17.80;71.70;;;;;;6099578;22;45449;-52
2023/12/30 04:31:54;;;;;;;3.60;1.02;;;17.90;72.00;;;;;;6050886;22;45295;-52
2023/12/30 04:34:24;;;;;;;3.33;0.90;;;17.80;72.00;;;;;;6077464;22;45747;-52
2023/12/30 04:36:51;;;;;;;5.03;1.15;;;17.80;72.30;;;;;;6032782;22;45937;-52
2023/12/30 04:39:30;;;;;;;2.30;0.77;;;17.80;72.10;;;;;;6048521;22;45108;-52
2023/12/30 04:42:15;;;;;;;4.60;1.40;;;17.80;72.30;;;;;;6037137;22;45383;-52
2023/12/30 04:44:54;;;;;;;1.85;0.90;;;17.80;72.40;;;;;;6062168;22;45800;-52
2023/12/30 04:47:56;;;;;;;3.83;1.02;;;17.80;72.20;;;;;;6091862;22;45542;-52
2023/12/30 04:50:39;;;;;;;3.47;1.10;;;17.80;72.40;;;;;;6071243;22;45346;-52
2023/12/30 04:53:06;;;;;;;2.90;0.80;;;17.80;72.20;;;;;;6062555;22;45416;-53
2023/12/30 04:55:33;;;;;;;2.38;0.60;;;17.80;71.90;;;;;;6044810;22;45048;-52
2023/12/30 04:58:24;;;;;;;4.55;0.85;;;17.80;72.20;;;;;;6033121;22;45695;-52
2023/12/30 05:01:03;;;;;;;6.72;1.20;;;17.80;72.00;;;;;;6042969;22;45030;-52
2023/12/30 05:03:56;;;;;;;5.35;1.00;;;17.90;72.30;;;;;;6078649;22;45128;-52
2023/12/30 05:06:40;;;;;;;3.85;1.05;;;17.80;71.90;;;;;;6051734;22;45322;-53
2023/12/30 05:09:09;;;;;;;2.92;0.90;;;17.90;72.20;;;;;;6038078;22;45423;-52
2023/12/30 05:11:36;;;;;;;4.53;1.00;;;17.90;72.00;;;;;;6068931;22;45189;-52
2023/12/30 05:14:06;;;;;;;4.95;1.17;;;17.90;72.50;;;;;;6069367;22;45204;-52
2023/12/30 05:16:46;;;;;;;4.32;1.10;;;17.90;72.20;;;;;;6046989;22;45260;-52
2023/12/30 05:22:23;;;;;;;3.50;0.88;;;17.90;71.70;;;;;;6021504;22;45441;-52
2023/12/30 05:25:22;;;;;;;3.85;1.15;;;17.80;71.60;;;;;;6030986;22;45387;-52
2023/12/30 05:28:12;;;;;;;2.08;0.80;;;17.80;71.90;;;;;;6052982;22;45090;-52
2023/12/30 05:30:40;;;;;;;3.85;0.95;;;17.80;72.40;;;;;;6067648;22;46946;-52
2023/12/30 05:33:06;;;;;;;2.65;0.98;;;17.80;72.20;;;;;;6044698;22;45276;-52
2023/12/30 05:35:35;;;;;;;4.10;1.05;;;17.80;72.20;;;;;;6066630;22;45263;-52
2023/12/30 05:38:05;;;;;;;5.07;0.77;;;17.80;72.20;;;;;;6060930;22;45387;-52
2023/12/30 05:40:36;;;;;;;5.22;1.52;;;17.80;72.00;;;;;;6072462;22;45254;-52
2023/12/30 05:43:23;;;;;;;3.35;0.93;;;17.80;72.20;;;;;;6066736;22;45264;-52
2023/12/30 05:46:16;;;;;;;3.72;0.85;;;17.80;72.10;;;;;;6051743;22;45371;-52
2023/12/30 05:49:12;;;;;;;3.17;0.80;;;17.80;71.90;;;;;;6075046;22;45745;-52
2023/12/30 05:52:12;;;;;;;2.70;0.95;;;17.80;71.40;;;;;;6072540;22;46981;-52
2023/12/30 05:54:55;;;;;;;3.92;1.13;;;17.80;70.90;;;;;;6063959;22;45127;-52
2023/12/30 05:57:23;;;;;;;4.13;0.93;;;17.80;71.70;;;;;;6055961;22;45761;-52
2023/12/30 05:59:58;;;;;;;5.00;1.33;;;17.80;71.70;;;;;;6052364;22;45169;-52
2023/12/30 06:02:52;;;;;;;3.97;1.02;;;17.80;71.70;;;;;;6084724;22;46249;-52
2023/12/30 06:05:19;;;;;;;4.47;1.10;;;17.80;71.70;;;;;;6057903;22;45230;-53
2023/12/30 06:08:06;;;;;;;3.65;1.08;;;17.80;71.70;;;;;;6063377;22;45250;-52
2023/12/30 06:10:36;;;;;;;1.67;0.70;;;17.90;71.60;;;;;;6060903;22;45262;-53
2023/12/30 06:13:33;;;;;;;4.03;1.10;;;17.90;71.70;;;;;;6048825;22;46049;-52
2023/12/30 06:16:14;;;;;;;3.33;1.10;;;17.90;71.50;;;;;;6051528;22;45217;-52
2023/12/30 06:18:43;;;;;;;3.28;1.10;;;17.90;71.50;;;;;;6060458;22;45305;-53
2023/12/30 06:21:44;;;;;;;3.22;0.98;;;17.80;71.50;;;;;;6045543;22;45309;-52
2023/12/30 06:24:38;;;;;;;2.45;0.80;;;17.80;71.70;;;;;;6055899;22;46088;-52
2023/12/30 06:27:08;;;;;;;2.05;0.70;;;17.80;71.90;;;;;;6044119;22;45130;-53
2023/12/30 06:29:35;;;;;;;3.72;1.00;;;17.80;71.60;;;;;;6036217;22;45258;-52
2023/12/30 06:32:02;;;;;;;2.25;0.60;;;17.80;71.70;;;;;;6064339;22;45357;-53
2023/12/30 06:34:54;;;;;;;5.20;0.88;;;17.80;71.90;;;;;;6047118;22;46500;-52
2023/12/30 06:37:43;;;;;;;3.35;0.85;;;17.80;71.70;;;;;;6081493;22;45353;-52
2023/12/30 06:40:38;;;;;;;2.63;1.10;;;17.80;71.70;;;;;;6111703;22;45231;-52
2023/12/30 06:43:16;;;;;;;2.70;1.00;;;17.80;71.50;;;;;;6047217;22;45186;-53
2023/12/30 06:45:45;;;;;;;4.03;1.02;;;17.80;71.40;;;;;;6055842;22;45377;-53
2023/12/30 06:48:12;;;;;;;3.40;0.90;;;17.80;71.50;;;;;;6076185;22;45283;-53
2023/12/30 06:51:10;;;;;;;1.23;0.80;;;17.80;71.30;;;;;;6068250;22;45313;-53
2023/12/30 06:53:57;;;;;;;4.32;1.10;;;17.90;71.90;;;;;;6058847;22;45488;-52
2023/12/30 06:56:37;;;;;;;2.28;0.65;;;17.80;71.70;;;;;;6056701;22;45367;-53
2023/12/30 06:59:12;;;;;;;4.55;1.05;;;17.90;71.80;;;;;;6043928;22;45356;-53
2023/12/30 07:01:40;;;;;;;3.28;0.80;;;17.90;71.70;;;;;;6045458;22;45323;-53
2023/12/30 07:04:07;;;;;;;4.25;1.10;;;17.90;71.80;;;;;;6076003;22;45334;-52
2023/12/30 07:06:55;;;;;;;5.45;1.00;;;17.90;71.60;;;;;;6064923;22;45475;-52
2023/12/30 07:09:51;;;;;;;3.42;1.20;;;17.80;70.50;;;;;;6111935;22;45186;-52
2023/12/30 07:12:45;;;;;;;5.18;1.08;;;17.80;70.20;;;;;;6091938;22;45342;-52
2023/12/30 07:15:25;;;;;;;2.30;0.70;;;17.80;70.70;;;;;;6060998;22;45548;-53
2023/12/30 07:17:52;;;;;;;1.85;0.73;;;17.80;71.10;;;;;;6065975;22;46018;-53
2023/12/30 07:20:53;;;;;;;4.13;0.90;;;17.80;71.20;;;;;;6092450;22;45263;-52
2023/12/30 07:23:40;;;;;;;3.15;0.90;;;17.80;71.10;;;;;;6053505;22;45413;-52
2023/12/30 07:26:07;;;;;;;4.75;1.10;;;17.80;71.30;;;;;;6073376;22;45724;-52
2023/12/30 07:28:33;;;;;;;2.67;1.08;;;17.70;71.10;;;;;;6029950;22;46347;-52
2023/12/30 07:31:13;;;;;;;2.53;1.00;;;17.70;71.40;;;;;;6054556;22;45234;-52
2023/12/30 07:33:57;;;;;;;3.42;1.00;;;17.70;71.50;;;;;;6039929;22;45162;-52
2023/12/30 07:36:24;;;;;;;2.20;0.63;;;17.70;72.20;;;;;;6067231;22;45551;-52
2023/12/30 07:38:53;;;;;;;4.13;1.08;;;17.70;72.40;;;;;;6059984;22;45238;-52
2023/12/30 07:41:51;;;;;;;2.13;0.90;;;17.70;72.40;;;;;;6059587;22;45351;-52
2023/12/30 07:44:18;;;;;;;3.13;0.80;;;17.70;72.30;;;;;;6054206;22;45263;-52
2023/12/30 07:50:22;;;;;;;2.97;0.70;;;17.70;72.10;;;;;;6066203;22;45844;-52
2023/12/30 07:53:05;;;;;;;2.70;0.70;;;17.80;72.20;;;;;;6050115;22;45097;-53
2023/12/30 07:55:56;;;;;;;3.47;0.85;;;17.70;71.60;;;;;;6046655;22;45261;-52
2023/12/30 07:58:23;;;;;;;2.95;0.93;;;17.70;72.00;;;;;;6064943;22;45449;-53
2023/12/30 08:01:05;;;;;;;3.30;1.25;;;17.70;72.00;;;;;;6081571;22;47065;-52
2023/12/30 08:03:34;;;;;;;3.45;1.23;;;17.70;72.90;;;;;;6059264;22;45194;-53
2023/12/30 08:06:01;;;;;;;2.58;0.68;;;17.70;72.50;;;;;;6059192;22;45243;-52
2023/12/30 08:08:45;;;;;;;3.10;0.75;;;17.70;72.40;;;;;;6058582;22;45191;-52
2023/12/30 08:11:12;;;;;;;2.50;0.70;;;17.60;72.60;;;;;;6055720;22;46188;-52
2023/12/30 08:14:15;;;;;;;3.63;0.98;;;17.70;72.50;;;;;;6084926;22;44838;-53
2023/12/30 08:16:43;;;;;;;3.72;0.90;;;17.70;72.50;;;;;;6059171;22;45365;-53
2023/12/30 08:19:50;;;;;;;3.67;1.10;;;17.70;72.40;;;;;;6065472;22;45165;-53
2023/12/30 08:22:40;;;;;;;1.92;0.98;;;17.70;72.80;;;;;;6113462;22;45269;-52
2023/12/30 08:25:31;;;;;;;1.45;0.50;;;17.70;72.70;;;;;;6058589;22;45341;-53
2023/12/30 08:28:17;;;;;;;3.28;1.00;;;17.70;73.90;;;;;;6092249;22;45321;-53
2023/12/30 08:30:46;;;;;;;2.42;0.88;;;17.70;72.80;;;;;;6049593;22;45570;-52
2023/12/30 08:33:15;;;;;;;3.83;0.90;;;17.70;73.00;;;;;;6046513;22;45504;-52
2023/12/30 08:35:44;;;;;;;2.22;1.02;;;17.70;73.00;;;;;;6054383;22;45363;-53
2023/12/30 08:38:11;;;;;;;2.28;0.80;;;17.80;73.00;;;;;;6069718;22;45380;-53
2023/12/30 08:40:51;;;;;;;3.80;1.10;;;17.70;73.00;;;;;;6073051;22;45040;-52
2023/12/30 08:43:30;;;;;;;4.50;1.08;;;17.70;73.00;;;;;;6061505;22;47306;-52
2023/12/30 08:45:57;;;;;;;4.68;0.93;;;17.80;73.20;;;;;;6079550;22;45101;-52
2023/12/30 08:48:34;;;;;;;2.92;0.82;;;17.80;73.20;;;;;;6054565;22;45253;-52
2023/12/30 08:51:28;;;;;;;5.65;1.08;;;17.80;73.20;;;;;;6098397;22;45664;-52
2023/12/30 08:57:03;;;;;;;2.03;0.60;;;17.80;73.00;;;;;;6029215;22;45273;-53
2023/12/30 08:59:53;;;;;;;4.00;0.90;;;17.70;73.30;;;;;;6061970;22;45303;-52
2023/12/30 09:02:46;;;;;;;3.22;1.08;;;17.70;73.50;;;;;;6039052;22;45136;-53
2023/12/30 09:05:43;;;;;;;3.60;0.90;;;17.70;73.40;;;;;;6056467;22;45305;-52
2023/12/30 09:08:37;;;;;;;3.55;1.02;;;17.70;73.50;;;;;;6052868;22;44887;-52
2023/12/30 09:11:37;;;;;;;2.75;1.02;;;17.70;73.40;;;;;;6039971;22;45486;-52
2023/12/30 09:14:35;;;;;;;3.03;1.02;;;17.70;73.40;;;;;;6056393;22;45410;-52
2023/12/30 09:20:24;;;;;;;3.10;0.93;;;17.60;74.00;;;;;;6021438;22;45298;-52
2023/12/30 09:23:10;;;;;;;2.13;0.80;;;17.70;73.70;;;;;;6064524;22;45021;-52
2023/12/30 09:26:07;;;;;;;2.10;0.75;;;17.70;72.50;;;;;;6072918;22;45369;-52
2023/12/30 09:28:35;;;;;;;2.83;0.77;;;17.60;72.00;;;;;;6042648;22;47132;-53
2023/12/30 09:31:25;;;;;;;2.95;0.80;;;17.60;70.80;;;;;;6076847;22;45437;-52
2023/12/30 09:34:16;;;;;;;7.10;1.55;;;17.60;70.30;;;;;;6075797;22;45046;-52
2023/12/30 09:36:43;;;;;;;3.63;0.90;;;17.60;70.80;;;;;;6042073;22;45300;-52
2023/12/30 09:39:19;;;;;;;5.63;1.25;;;17.60;71.00;;;;;;6062993;22;45424;-52
2023/12/30 09:42:00;;;;;;;3.35;1.13;;;17.50;70.80;;;;;;6062178;22;45054;-51
2023/12/30 09:44:43;;;;;;;4.32;1.30;;;17.50;70.40;;;;;;6088938;22;45218;-52
2023/12/30 09:47:12;;;;;;;4.82;0.90;;;17.50;70.70;;;;;;6095579;22;45229;-51
2023/12/30 09:50:03;;;;;;;4.10;1.00;;;17.50;69.70;;;;;;6065053;22;46226;-52
2023/12/30 09:52:45;;;;;;;4.70;1.10;;;17.50;69.30;;;;;;6071259;22;45339;-52
2023/12/30 09:55:23;;;;;;;5.88;1.10;;;17.60;69.20;;;;;;6071231;22;45146;-52
2023/12/30 09:58:48;;;;;;;3.95;1.20;;;17.60;69.00;;;;;;6073060;22;45355;-52
2023/12/30 10:01:49;;;;;;;2.88;1.15;;;17.60;70.00;;;;;;6066535;22;45277;-52
2023/12/30 10:04:43;;;;;;;3.78;1.48;;;17.60;70.10;;;;;;6057067;22;45315;-52
2023/12/30 10:07:11;;;;;;;7.25;1.13;;;17.70;70.20;;;;;;6056538;22;45381;-52
2023/12/30 10:09:56;;;;;;;4.50;0.85;;;17.70;70.60;;;;;;6045147;22;45335;-52
2023/12/30 10:12:27;;;;;;;4.85;1.20;;;17.70;71.00;;;;;;6045782;22;47065;-52
2023/12/30 10:15:12;;;;;;;3.60;0.85;;;17.70;71.30;;;;;;6058292;22;45366;-52
2023/12/30 10:17:58;;;;;;;3.50;1.02;;;17.70;71.20;;;;;;6093456;22;45203;-52
2023/12/30 10:20:25;;;;;;;3.85;1.13;;;17.70;71.70;;;;;;6041604;22;45273;-52
2023/12/30 10:23:14;;;;;;;3.88;1.10;;;17.70;71.50;;;;;;6075680;22;45230;-52
2023/12/30 10:25:49;;;;;;;2.45;0.77;;;17.70;71.60;;;;;;6047169;22;45007;-52
2023/12/30 10:28:20;;;;;;;4.15;1.08;;;17.80;71.80;;;;;;6069553;22;45340;-52
2023/12/30 10:31:11;;;;;;;3.10;1.08;;;17.80;72.10;;;;;;6042705;22;45278;-52
2023/12/30 10:34:22;;;;;;;2.83;0.80;;;17.70;72.30;;;;;;6061306;22;45562;-52
2023/12/30 10:37:17;;;;;;;4.53;1.00;;;17.80;72.40;;;;;;6061798;22;45141;-52
2023/12/30 10:39:46;;;;;;;3.70;1.10;;;17.80;72.30;;;;;;6051269;22;45255;-52
2023/12/30 10:42:14;;;;;;;2.92;0.93;;;17.80;72.40;;;;;;6061549;22;44943;-52
2023/12/30 10:45:09;;;;;;;3.28;0.88;;;17.80;72.70;;;;;;6077317;22;46213;-52
2023/12/30 10:48:03;;;;;;;4.55;1.02;;;17.80;72.60;;;;;;6045209;22;45232;-51
2023/12/30 10:50:48;;;;;;;2.22;0.98;;;17.70;72.80;;;;;;6072278;22;45166;-51
2023/12/30 10:53:40;;;;;;;1.85;0.85;;;17.80;72.90;;;;;;6039650;22;45297;-52
2023/12/30 10:56:20;;;;;;;4.97;1.08;;;17.70;72.80;;;;;;6046704;22;45419;-52
2023/12/30 10:59:10;;;;;;;3.72;0.90;;;17.80;73.00;;;;;;6045179;22;44895;-52
2023/12/30 11:01:40;;;;;;;1.63;0.75;;;17.80;72.70;;;;;;6046293;22;45224;-52
2023/12/30 11:04:46;;;;;;;5.22;1.08;;;17.80;72.70;;;;;;6047810;22;45275;-52
2023/12/30 11:07:33;;;;;;;2.88;0.90;;;17.70;72.80;;;;;;6064966;22;46159;-52
2023/12/30 11:10:26;;;;;;;2.40;0.60;;;17.80;72.60;;;;;;6047754;22;44900;-52
2023/12/30 11:13:10;;;;;;;3.75;1.13;;;17.80;72.40;;;;;;6060652;22;45192;-52
2023/12/30 11:18:58;;;;;;;4.80;1.02;;;17.90;72.60;;;;;;6047080;22;45366;-52
2023/12/30 11:21:55;;;;;;;3.45;0.70;;;17.90;72.40;;;;;;6067113;22;45396;-52
2023/12/30 11:28:25;;;;;;;4.10;0.88;;;17.90;72.40;;;;;;6040820;22;45355;-52
2023/12/30 11:31:18;;;;;;;3.08;0.80;;;17.90;72.30;;;;;;6068682;22;45237;-52
2023/12/30 11:36:27;;;;;;;2.20;0.68;;;17.90;73.80;;;;;;6038814;22;45311;-52
2023/12/30 11:38:55;;;;;;;3.47;0.90;;;17.80;72.90;;;;;;6045559;22;45020;-52
2023/12/30 11:44:54;;;;;;;3.63;0.80;;;17.80;73.00;;;;;;6035441;22;45546;-52
2023/12/30 11:47:30;;;;;;;2.40;0.90;;;17.80;73.30;;;;;;6056774;22;45279;-52
2023/12/30 11:50:05;;;;;;;2.55;0.70;;;17.80;73.30;;;;;;6052313;22;44892;-52
2023/12/30 11:53:01;;;;;;;2.78;0.82;;;17.80;73.40;;;;;;6052524;22;48259;-52
2023/12/30 11:55:42;;;;;;;3.70;0.90;;;17.80;73.40;;;;;;6057144;22;45297;-52
2023/12/30 11:58:08;;;;;;;3.08;0.98;;;17.80;73.30;;;;;;6047681;22;45333;-52
2023/12/30 12:01:04;;;;;;;4.07;1.05;;;17.80;73.30;;;;;;6070380;22;45341;-52
2023/12/30 12:03:45;;;;;;;3.80;0.80;;;17.90;73.30;;;;;;6040812;22;45962;-52
2023/12/30 12:06:42;;;;;;;3.90;0.70;;;17.90;73.10;;;;;;6069997;22;45268;-52
2023/12/30 12:09:10;;;;;;;4.47;1.20;;;17.90;72.70;;;;;;6041126;22;45397;-52
2023/12/30 12:12:07;;;;;;;3.90;1.10;;;17.90;72.80;;;;;;6045299;22;45245;-52
2023/12/30 12:14:55;;;;;;;3.47;0.95;;;17.90;72.70;;;;;;6058513;22;45422;-52
2023/12/30 12:49:09;;;;;;;2.63;0.70;;;17.90;72.10;;;;;;6058052;22;45648;-52
2023/12/30 12:51:39;;;;;;;2.92;0.70;;;17.90;72.00;;;;;;6045286;22;44978;-53
2023/12/30 12:54:11;;;;;;;3.20;0.82;;;17.80;71.90;;;;;;6060986;22;46323;-53
2023/12/30 12:56:56;;;;;;;2.10;0.60;;;17.90;72.20;;;;;;6064853;22;44508;-53
2023/12/30 12:59:24;;;;;;;2.03;0.55;;;17.90;72.00;;;;;;6049424;22;44710;-53
2023/12/30 13:01:53;;;;;;;3.00;0.63;;;17.90;72.20;;;;;;6023413;22;44790;-53
2023/12/30 13:04:31;;;;;;;1.77;0.60;;;17.90;72.20;;;;;;6036219;22;45645;-52
2023/12/30 13:06:59;;;;;;;2.72;0.95;;;17.90;73.20;;;;;;6023320;22;44997;-52
2023/12/30 13:12:08;;;;;;;4.88;1.13;;;17.90;72.90;;;;;;6006742;22;44948;-53
2023/12/30 13:14:35;;;;;;;1.05;0.60;;;17.80;72.90;;;;;;6015049;22;45616;-53
2023/12/30 13:17:06;;;;;;;1.25;0.60;;;17.80;72.90;;;;;;6050669;22;44743;-53
2023/12/30 13:19:50;;;;;;;2.50;0.70;;;17.80;72.90;;;;;;6036126;22;45024;-53
2023/12/30 13:22:19;;;;;;;1.20;0.50;;;17.80;72.80;;;;;;6043930;22;44752;-53
2023/12/30 13:24:49;;;;;;;3.42;0.68;;;17.80;72.90;;;;;;6042214;22;46291;-53
2023/12/30 13:27:16;;;;;;;2.05;0.50;;;17.80;73.10;;;;;;6026932;22;44730;-53
2023/12/30 13:29:43;;;;;;;1.58;0.50;;;17.80;73.10;;;;;;6039494;22;44576;-53
2023/12/30 13:32:12;;;;;;;3.05;0.82;;;17.80;73.00;;;;;;6034491;22;44849;-53
2023/12/30 13:34:53;;;;;;;1.30;0.50;;;17.80;73.00;;;;;;6004779;22;45253;-53
2023/12/30 13:37:22;;;;;;;1.90;0.75;;;17.80;71.80;;;;;;6024602;22;44892;-53
2023/12/30 13:40:10;;;;;;;1.50;0.45;;;17.80;71.90;;;;;;6014756;22;44964;-53
2023/12/30 13:42:38;;;;;;;2.60;0.70;;;17.80;72.10;;;;;;6008462;22;44908;-53
2023/12/30 13:45:09;;;;;;;2.78;0.57;;;17.80;72.70;;;;;;6014974;22;46359;-53
2023/12/30 13:47:52;;;;;;;4.10;1.05;;;17.80;72.50;;;;;;6001623;22;44844;-53
2023/12/30 13:51:00;;;;;;;2.40;0.60;;;17.80;72.60;;;;;;6004479;22;44677;-53
2023/12/30 13:53:37;;;;;;;1.83;0.50;;;17.80;71.70;;;;;;6007140;22;44697;-52
2023/12/30 13:56:10;;;;;;;3.08;0.90;;;17.90;71.50;;;;;;6030573;22;45921;-53
2023/12/30 13:58:49;;;;;;;1.80;0.50;;;17.90;71.50;;;;;;6022519;22;45480;-53
2023/12/30 14:01:22;;;;;;;3.58;0.65;;;18.00;71.20;;;;;;6033217;22;44842;-53
2023/12/30 14:03:52;;;;;;;3.30;0.77;;;18.00;71.40;;;;;;6050763;22;44672;-52
2023/12/30 14:06:29;;;;;;;2.60;0.73;;;18.00;71.20;;;;;;6043112;22;45795;-53
2023/12/30 14:09:03;;;;;;;2.08;0.60;;;18.00;71.10;;;;;;6034658;22;44840;-52
2023/12/30 14:11:59;;;;;;;1.67;0.52;;;18.00;71.00;;;;;;6043166;22;44723;-52
2023/12/30 14:14:34;;;;;;;2.17;0.63;;;18.00;70.50;;;;;;6037417;22;44725;-52
2023/12/30 14:17:15;;;;;;;1.33;0.57;;;17.90;70.50;;;;;;6016274;22;45080;-52
2023/12/30 14:19:43;;;;;;;2.50;0.60;;;17.90;71.20;;;;;;6037453;22;44746;-52
2023/12/30 14:24:52;;;;;;;1.88;0.70;;;17.90;71.50;;;;;;6012466;22;44911;-52
2023/12/30 14:27:20;;;;;;;2.67;0.60;;;18.00;70.70;;;;;;6019053;22;46499;-52
2023/12/30 14:29:58;;;;;;;1.92;0.50;;;17.90;69.60;;;;;;6024642;22;44716;-52
2023/12/30 14:32:26;;;;;;;1.80;0.68;;;17.90;70.10;;;;;;6020361;22;44675;-52
2023/12/30 14:34:53;;;;;;;2.15;0.63;;;17.90;70.70;;;;;;6018411;22;44929;-52
2023/12/30 14:37:23;;;;;;;1.30;0.50;;;17.90;70.80;;;;;;6029939;22;46207;-52
2023/12/30 14:39:51;;;;;;;2.35;0.47;;;17.90;70.90;;;;;;6018913;22;44822;-52
2023/12/30 14:42:27;;;;;;;2.10;0.60;;;17.90;70.80;;;;;;6029281;22;44726;-53
2023/12/30 14:44:54;;;;;;;1.52;0.60;;;17.90;70.80;;;;;;6034521;22;44927;-53
2023/12/30 14:47:23;;;;;;;3.10;0.70;;;17.90;71.00;;;;;;6037260;22;45339;-53
2023/12/30 14:49:50;;;;;;;2.03;0.60;;;17.90;71.00;;;;;;6042445;22;44657;-52
2023/12/30 14:52:34;;;;;;;1.45;0.60;;;17.90;71.00;;;;;;6064351;22;44752;-52
2023/12/30 14:55:07;;;;;;;2.78;0.70;;;17.90;71.10;;;;;;6055508;22;44805;-52
2023/12/30 15:06:28;;;;;;;2.28;0.52;;;17.90;71.00;;;;;;6022324;22;45106;-52
2023/12/30 15:08:58;;;;;;;4.38;0.80;;;17.90;71.10;;;;;;6044489;22;45640;-52
2023/12/30 15:11:38;;;;;;;2.72;0.80;;;17.90;71.10;;;;;;6039981;22;44829;-52
2023/12/30 15:14:06;;;;;;;1.52;0.70;;;17.90;71.10;;;;;;6027047;22;44675;-52
2023/12/30 15:16:34;;;;;;;2.88;0.50;;;17.90;71.00;;;;;;6058026;22;44683;-52
2023/12/30 15:19:22;;;;;;;1.85;0.75;;;17.90;71.20;;;;;;6044276;22;45755;-52
2023/12/30 15:22:08;;;;;;;1.15;0.43;;;17.90;71.20;;;;;;6063625;22;44689;-52
2023/12/30 15:24:35;;;;;;;2.55;0.47;;;17.90;71.50;;;;;;6041407;22;44724;-53
2023/12/30 15:27:15;;;;;;;1.60;0.60;;;17.80;71.10;;;;;;6058484;22;44816;-52
2023/12/30 15:29:42;;;;;;;3.17;0.70;;;17.80;71.00;;;;;;6034338;22;45525;-52
2023/12/30 15:32:11;;;;;;;3.28;0.80;;;17.80;71.30;;;;;;6055259;22;44609;-52
2023/12/30 15:37:27;;;;;;;2.72;0.60;;;17.80;71.60;;;;;;6045800;22;44634;-52
2023/12/30 15:39:54;;;;;;;4.90;0.80;;;17.90;71.60;;;;;;6028853;22;46586;-52